sensor_id;sensor_type;location;lat;lon;timestamp;P1;durP1;ratioP1;P2;durP2;ratioP2
10132;SDS011;5106;50.926;7.080;2023-04-01T00:00:54;2.58;;;0.80;;
10132;SDS011;5106;50.926;7.080;2023-04-01T00:03:20;1.33;;;0.60;;
10132;SDS011;5106;50.926;7.080;2023-04-01T00:05:47;1.95;;;0.73;;
10132;SDS011;5106;50.926;7.080;2023-04-01T00:08:13;1.95;;;0.63;;
10132;SDS011;5106;50.926;7.080;2023-04-01T00:10:39;1.63;;;0.55;;
10132;SDS011;5106;50.926;7.080;2023-04-01T00:13:05;1.48;;;0.63;;
10132;SDS011;5106;50.926;7.080;2023-04-01T00:15:31;1.27;;;0.40;;
10132;SDS011;5106;50.926;7.080;2023-04-01T00:17:57;1.20;;;0.50;;
10132;SDS011;5106;50.926;7.080;2023-04-01T00:20:23;0.60;;;0.45;;
10132;SDS011;5106;50.926;7.080;2023-04-01T00:22:50;1.85;;;0.38;;
10132;SDS011;5106;50.926;7.080;2023-04-01T00:25:16;1.13;;;0.65;;
10132;SDS011;5106;50.926;7.080;2023-04-01T00:27:41;0.60;;;0.40;;
10132;SDS011;5106;50.926;7.080;2023-04-01T00:30:07;1.23;;;0.40;;
10132;SDS011;5106;50.926;7.080;2023-04-01T00:32:33;0.80;;;0.45;;
10132;SDS011;5106;50.926;7.080;2023-04-01T00:34:59;2.78;;;0.50;;
10132;SDS011;5106;50.926;7.080;2023-04-01T00:37:25;0.60;;;0.32;;
10132;SDS011;5106;50.926;7.080;2023-04-01T00:39:52;2.30;;;0.60;;
10132;SDS011;5106;50.926;7.080;2023-04-01T00:42:17;1.30;;;0.52;;
10132;SDS011;5106;50.926;7.080;2023-04-01T00:44:45;0.75;;;0.43;;
10132;SDS011;5106;50.926;7.080;2023-04-01T00:47:16;1.13;;;0.65;;
10132;SDS011;5106;50.926;7.080;2023-04-01T00:49:43;1.77;;;0.50;;
10132;SDS011;5106;50.926;7.080;2023-04-01T00:52:13;0.85;;;0.50;;
10132;SDS011;5106;50.926;7.080;2023-04-01T00:54:41;1.05;;;0.40;;
10132;SDS011;5106;50.926;7.080;2023-04-01T00:57:22;0.50;;;0.35;;
10132;SDS011;5106;50.926;7.080;2023-04-01T00:59:50;0.88;;;0.47;;
10132;SDS011;5106;50.926;7.080;2023-04-01T01:02:18;1.08;;;0.35;;
10132;SDS011;5106;50.926;7.080;2023-04-01T01:04:44;0.85;;;0.43;;
10132;SDS011;5106;50.926;7.080;2023-04-01T01:12:24;0.38;;;0.30;;
10132;SDS011;5106;50.926;7.080;2023-04-01T01:17:39;1.98;;;0.50;;
10132;SDS011;5106;50.926;7.080;2023-04-01T01:20:29;1.48;;;0.60;;
10132;SDS011;5106;50.926;7.080;2023-04-01T01:29:09;0.30;;;0.20;;
10132;SDS011;5106;50.926;7.080;2023-04-01T01:37:23;0.63;;;0.20;;
10132;SDS011;5106;50.926;7.080;2023-04-01T01:39:53;1.08;;;0.45;;
10132;SDS011;5106;50.926;7.080;2023-04-01T01:42:21;0.28;;;0.20;;
10132;SDS011;5106;50.926;7.080;2023-04-01T01:44:50;0.50;;;0.35;;
10132;SDS011;5106;50.926;7.080;2023-04-01T01:47:18;1.67;;;0.40;;
10132;SDS011;5106;50.926;7.080;2023-04-01T01:49:46;0.82;;;0.60;;
10132;SDS011;5106;50.926;7.080;2023-04-01T01:52:13;1.42;;;0.50;;
10132;SDS011;5106;50.926;7.080;2023-04-01T01:54:49;1.75;;;0.60;;
10132;SDS011;5106;50.926;7.080;2023-04-01T01:57:15;0.90;;;0.40;;
10132;SDS011;5106;50.926;7.080;2023-04-01T01:59:42;0.75;;;0.40;;
10132;SDS011;5106;50.926;7.080;2023-04-01T02:02:10;0.95;;;0.40;;
10132;SDS011;5106;50.926;7.080;2023-04-01T02:04:38;0.35;;;0.25;;
10132;SDS011;5106;50.926;7.080;2023-04-01T02:07:07;2.65;;;0.50;;
10132;SDS011;5106;50.926;7.080;2023-04-01T02:09:38;2.40;;;0.52;;
10132;SDS011;5106;50.926;7.080;2023-04-01T02:12:05;1.27;;;0.60;;
10132;SDS011;5106;50.926;7.080;2023-04-01T02:17:16;1.02;;;0.47;;
10132;SDS011;5106;50.926;7.080;2023-04-01T02:19:46;0.65;;;0.30;;
10132;SDS011;5106;50.926;7.080;2023-04-01T02:22:22;1.45;;;0.50;;
10132;SDS011;5106;50.926;7.080;2023-04-01T02:24:52;0.90;;;0.38;;
10132;SDS011;5106;50.926;7.080;2023-04-01T02:27:23;1.60;;;0.50;;
10132;SDS011;5106;50.926;7.080;2023-04-01T02:29:49;1.60;;;0.65;;
10132;SDS011;5106;50.926;7.080;2023-04-01T02:32:16;1.80;;;0.40;;
10132;SDS011;5106;50.926;7.080;2023-04-01T02:34:43;0.95;;;0.55;;
10132;SDS011;5106;50.926;7.080;2023-04-01T02:37:10;2.15;;;0.50;;
10132;SDS011;5106;50.926;7.080;2023-04-01T02:39:37;0.65;;;0.32;;
10132;SDS011;5106;50.926;7.080;2023-04-01T02:42:02;1.55;;;0.30;;
10132;SDS011;5106;50.926;7.080;2023-04-01T02:44:28;2.13;;;0.60;;
10132;SDS011;5106;50.926;7.080;2023-04-01T02:46:54;1.63;;;0.60;;
10132;SDS011;5106;50.926;7.080;2023-04-01T02:49:19;0.65;;;0.50;;
10132;SDS011;5106;50.926;7.080;2023-04-01T02:51:45;1.17;;;0.55;;
10132;SDS011;5106;50.926;7.080;2023-04-01T02:54:10;2.45;;;0.68;;
10132;SDS011;5106;50.926;7.080;2023-04-01T02:56:36;1.42;;;0.40;;
10132;SDS011;5106;50.926;7.080;2023-04-01T02:59:02;1.38;;;0.50;;
10132;SDS011;5106;50.926;7.080;2023-04-01T03:01:27;1.42;;;0.60;;
10132;SDS011;5106;50.926;7.080;2023-04-01T03:03:53;0.55;;;0.20;;
10132;SDS011;5106;50.926;7.080;2023-04-01T03:06:19;0.85;;;0.47;;
10132;SDS011;5106;50.926;7.080;2023-04-01T03:08:44;1.73;;;0.70;;
10132;SDS011;5106;50.926;7.080;2023-04-01T03:11:10;0.50;;;0.43;;
10132;SDS011;5106;50.926;7.080;2023-04-01T03:13:37;0.68;;;0.40;;
10132;SDS011;5106;50.926;7.080;2023-04-01T03:16:02;0.85;;;0.50;;
10132;SDS011;5106;50.926;7.080;2023-04-01T03:18:28;1.08;;;0.50;;
10132;SDS011;5106;50.926;7.080;2023-04-01T03:20:53;0.77;;;0.40;;
10132;SDS011;5106;50.926;7.080;2023-04-01T03:23:19;1.40;;;0.50;;
10132;SDS011;5106;50.926;7.080;2023-04-01T03:25:46;0.90;;;0.40;;
10132;SDS011;5106;50.926;7.080;2023-04-01T03:28:12;0.45;;;0.35;;
10132;SDS011;5106;50.926;7.080;2023-04-01T03:30:38;1.55;;;0.40;;
10132;SDS011;5106;50.926;7.080;2023-04-01T03:33:04;1.17;;;0.30;;
10132;SDS011;5106;50.926;7.080;2023-04-01T03:35:30;1.67;;;0.50;;
10132;SDS011;5106;50.926;7.080;2023-04-01T03:37:56;1.03;;;0.30;;
10132;SDS011;5106;50.926;7.080;2023-04-01T03:40:22;0.85;;;0.50;;
10132;SDS011;5106;50.926;7.080;2023-04-01T03:42:48;0.40;;;0.30;;
10132;SDS011;5106;50.926;7.080;2023-04-01T03:45:14;1.33;;;0.13;;
10132;SDS011;5106;50.926;7.080;2023-04-01T03:47:39;0.63;;;0.30;;
10132;SDS011;5106;50.926;7.080;2023-04-01T03:50:06;0.90;;;0.37;;
10132;SDS011;5106;50.926;7.080;2023-04-01T03:52:32;0.80;;;0.38;;
10132;SDS011;5106;50.926;7.080;2023-04-01T03:54:58;0.90;;;0.47;;
10132;SDS011;5106;50.926;7.080;2023-04-01T03:57:24;0.88;;;0.20;;
10132;SDS011;5106;50.926;7.080;2023-04-01T03:59:50;1.10;;;0.30;;
10132;SDS011;5106;50.926;7.080;2023-04-01T04:02:15;0.43;;;0.40;;
10132;SDS011;5106;50.926;7.080;2023-04-01T04:04:41;1.00;;;0.50;;
10132;SDS011;5106;50.926;7.080;2023-04-01T04:07:07;1.40;;;0.43;;
10132;SDS011;5106;50.926;7.080;2023-04-01T04:09:33;0.85;;;0.40;;
10132;SDS011;5106;50.926;7.080;2023-04-01T04:11:59;0.40;;;0.40;;
10132;SDS011;5106;50.926;7.080;2023-04-01T04:14:26;0.40;;;0.40;;
10132;SDS011;5106;50.926;7.080;2023-04-01T04:16:51;0.60;;;0.20;;
10132;SDS011;5106;50.926;7.080;2023-04-01T04:19:17;1.50;;;0.50;;
10132;SDS011;5106;50.926;7.080;2023-04-01T04:21:43;0.32;;;0.30;;
10132;SDS011;5106;50.926;7.080;2023-04-01T04:24:08;1.38;;;0.40;;
10132;SDS011;5106;50.926;7.080;2023-04-01T04:26:34;0.73;;;0.40;;
10132;SDS011;5106;50.926;7.080;2023-04-01T04:29:00;0.52;;;0.30;;
10132;SDS011;5106;50.926;7.080;2023-04-01T04:31:26;0.77;;;0.40;;
10132;SDS011;5106;50.926;7.080;2023-04-01T04:33:52;0.40;;;0.30;;
10132;SDS011;5106;50.926;7.080;2023-04-01T04:36:18;0.80;;;0.32;;
10132;SDS011;5106;50.926;7.080;2023-04-01T04:38:44;0.57;;;0.20;;
10132;SDS011;5106;50.926;7.080;2023-04-01T04:41:11;0.60;;;0.40;;
10132;SDS011;5106;50.926;7.080;2023-04-01T04:43:38;0.30;;;0.20;;
10132;SDS011;5106;50.926;7.080;2023-04-01T04:46:08;0.80;;;0.28;;
10132;SDS011;5106;50.926;7.080;2023-04-01T04:48:35;0.20;;;0.20;;
10132;SDS011;5106;50.926;7.080;2023-04-01T04:51:01;0.08;;;0.08;;
10132;SDS011;5106;50.926;7.080;2023-04-01T04:53:28;0.40;;;0.30;;
10132;SDS011;5106;50.926;7.080;2023-04-01T04:55:53;0.47;;;0.22;;
10132;SDS011;5106;50.926;7.080;2023-04-01T04:58:19;0.50;;;0.30;;
10132;SDS011;5106;50.926;7.080;2023-04-01T05:00:45;0.43;;;0.30;;
10132;SDS011;5106;50.926;7.080;2023-04-01T05:03:11;1.15;;;0.20;;
10132;SDS011;5106;50.926;7.080;2023-04-01T05:05:38;0.60;;;0.50;;
10132;SDS011;5106;50.926;7.080;2023-04-01T05:08:03;0.70;;;0.33;;
10132;SDS011;5106;50.926;7.080;2023-04-01T05:10:30;0.75;;;0.40;;
10132;SDS011;5106;50.926;7.080;2023-04-01T05:12:56;0.73;;;0.23;;
10132;SDS011;5106;50.926;7.080;2023-04-01T05:15:22;0.32;;;0.30;;
10132;SDS011;5106;50.926;7.080;2023-04-01T05:17:48;0.45;;;0.30;;
10132;SDS011;5106;50.926;7.080;2023-04-01T05:20:15;0.82;;;0.60;;
10132;SDS011;5106;50.926;7.080;2023-04-01T05:22:42;1.50;;;0.80;;
10132;SDS011;5106;50.926;7.080;2023-04-01T05:25:08;0.75;;;0.50;;
10132;SDS011;5106;50.926;7.080;2023-04-01T05:27:34;1.00;;;0.70;;
10132;SDS011;5106;50.926;7.080;2023-04-01T05:30:00;1.40;;;0.60;;
10132;SDS011;5106;50.926;7.080;2023-04-01T05:32:26;1.10;;;0.80;;
10132;SDS011;5106;50.926;7.080;2023-04-01T05:34:52;1.60;;;0.87;;
10132;SDS011;5106;50.926;7.080;2023-04-01T05:37:19;1.50;;;0.93;;
10132;SDS011;5106;50.926;7.080;2023-04-01T05:39:45;1.02;;;0.80;;
10132;SDS011;5106;50.926;7.080;2023-04-01T05:42:10;1.85;;;0.90;;
10132;SDS011;5106;50.926;7.080;2023-04-01T05:44:36;1.55;;;1.25;;
10132;SDS011;5106;50.926;7.080;2023-04-01T05:47:03;1.90;;;1.00;;
10132;SDS011;5106;50.926;7.080;2023-04-01T05:49:29;3.03;;;1.08;;
10132;SDS011;5106;50.926;7.080;2023-04-01T05:51:55;1.17;;;0.70;;
10132;SDS011;5106;50.926;7.080;2023-04-01T05:54:21;1.20;;;0.90;;
10132;SDS011;5106;50.926;7.080;2023-04-01T05:56:50;1.40;;;0.90;;
10132;SDS011;5106;50.926;7.080;2023-04-01T05:59:15;1.17;;;0.80;;
10132;SDS011;5106;50.926;7.080;2023-04-01T06:01:41;2.00;;;0.90;;
10132;SDS011;5106;50.926;7.080;2023-04-01T06:04:09;2.38;;;0.70;;
10132;SDS011;5106;50.926;7.080;2023-04-01T06:06:38;1.20;;;0.75;;
10132;SDS011;5106;50.926;7.080;2023-04-01T06:09:10;2.22;;;0.80;;
10132;SDS011;5106;50.926;7.080;2023-04-01T06:14:26;2.75;;;0.90;;
10132;SDS011;5106;50.926;7.080;2023-04-01T06:30:44;1.45;;;0.90;;
10132;SDS011;5106;50.926;7.080;2023-04-01T06:33:32;0.77;;;0.77;;
10132;SDS011;5106;50.926;7.080;2023-04-01T06:36:03;4.53;;;0.95;;
10132;SDS011;5106;50.926;7.080;2023-04-01T06:47:31;1.83;;;0.65;;
10132;SDS011;5106;50.926;7.080;2023-04-01T06:50:33;1.27;;;0.70;;
10132;SDS011;5106;50.926;7.080;2023-04-01T06:54:18;1.45;;;0.90;;
10132;SDS011;5106;50.926;7.080;2023-04-01T06:56:20;1.33;;;0.85;;
10132;SDS011;5106;50.926;7.080;2023-04-01T06:58:59;2.42;;;0.90;;
10132;SDS011;5106;50.926;7.080;2023-04-01T07:06:52;1.67;;;1.00;;
10132;SDS011;5106;50.926;7.080;2023-04-01T07:09:31;2.03;;;1.00;;
10132;SDS011;5106;50.926;7.080;2023-04-01T07:12:00;1.95;;;0.95;;
10132;SDS011;5106;50.926;7.080;2023-04-01T07:14:37;1.45;;;1.00;;
10132;SDS011;5106;50.926;7.080;2023-04-01T07:19:45;2.25;;;1.30;;
10132;SDS011;5106;50.926;7.080;2023-04-01T07:24:49;3.60;;;1.30;;
10132;SDS011;5106;50.926;7.080;2023-04-01T07:27:17;4.35;;;1.30;;
10132;SDS011;5106;50.926;7.080;2023-04-01T07:29:43;2.55;;;1.30;;
10132;SDS011;5106;50.926;7.080;2023-04-01T07:35:02;2.60;;;1.25;;
10132;SDS011;5106;50.926;7.080;2023-04-01T07:46:16;2.80;;;1.27;;
10132;SDS011;5106;50.926;7.080;2023-04-01T07:48:44;1.70;;;1.30;;
10132;SDS011;5106;50.926;7.080;2023-04-01T07:51:34;2.70;;;1.65;;
10132;SDS011;5106;50.926;7.080;2023-04-01T07:54:21;3.15;;;1.63;;
10132;SDS011;5106;50.926;7.080;2023-04-01T07:56:57;2.13;;;1.55;;
10132;SDS011;5106;50.926;7.080;2023-04-01T07:59:30;1.65;;;1.40;;
10132;SDS011;5106;50.926;7.080;2023-04-01T08:02:28;2.42;;;1.30;;
10132;SDS011;5106;50.926;7.080;2023-04-01T08:13:09;1.88;;;1.17;;
10132;SDS011;5106;50.926;7.080;2023-04-01T08:18:31;2.15;;;1.20;;
10132;SDS011;5106;50.926;7.080;2023-04-01T08:21:06;1.63;;;1.10;;
10132;SDS011;5106;50.926;7.080;2023-04-01T08:23:56;1.08;;;0.98;;
10132;SDS011;5106;50.926;7.080;2023-04-01T08:34:17;1.10;;;0.95;;
10132;SDS011;5106;50.926;7.080;2023-04-01T08:36:49;1.87;;;1.00;;
10132;SDS011;5106;50.926;7.080;2023-04-01T08:39:29;1.20;;;1.10;;
10132;SDS011;5106;50.926;7.080;2023-04-01T08:45:22;1.77;;;0.90;;
10132;SDS011;5106;50.926;7.080;2023-04-01T08:54:26;3.08;;;0.90;;
10132;SDS011;5106;50.926;7.080;2023-04-01T08:57:35;1.02;;;0.93;;
10132;SDS011;5106;50.926;7.080;2023-04-01T09:00:20;2.00;;;1.00;;
10132;SDS011;5106;50.926;7.080;2023-04-01T09:03:07;1.60;;;0.95;;
10132;SDS011;5106;50.926;7.080;2023-04-01T09:05:36;1.52;;;1.17;;
10132;SDS011;5106;50.926;7.080;2023-04-01T09:11:23;1.17;;;0.85;;
10132;SDS011;5106;50.926;7.080;2023-04-01T09:22:10;1.92;;;0.95;;
10132;SDS011;5106;50.926;7.080;2023-04-01T09:25:04;1.48;;;0.80;;
10132;SDS011;5106;50.926;7.080;2023-04-01T09:30:37;1.80;;;0.70;;
10132;SDS011;5106;50.926;7.080;2023-04-01T09:36:38;1.08;;;0.90;;
10132;SDS011;5106;50.926;7.080;2023-04-01T09:39:38;2.67;;;0.85;;
10132;SDS011;5106;50.926;7.080;2023-04-01T09:51:17;1.55;;;1.05;;
10132;SDS011;5106;50.926;7.080;2023-04-01T09:56:42;1.90;;;1.00;;
10132;SDS011;5106;50.926;7.080;2023-04-01T09:59:46;2.17;;;1.10;;
10132;SDS011;5106;50.926;7.080;2023-04-01T10:08:23;1.33;;;0.85;;
10132;SDS011;5106;50.926;7.080;2023-04-01T10:22:31;1.10;;;0.80;;
10132;SDS011;5106;50.926;7.080;2023-04-01T10:25:37;1.35;;;0.85;;
10132;SDS011;5106;50.926;7.080;2023-04-01T10:54:02;1.98;;;1.00;;
10132;SDS011;5106;50.926;7.080;2023-04-01T11:17:15;1.20;;;1.00;;
10132;SDS011;5106;50.926;7.080;2023-04-01T11:20:28;1.27;;;1.00;;
10132;SDS011;5106;50.926;7.080;2023-04-01T11:26:02;1.00;;;0.90;;
10132;SDS011;5106;50.926;7.080;2023-04-01T11:34:22;1.25;;;0.95;;
10132;SDS011;5106;50.926;7.080;2023-04-01T11:37:11;1.60;;;0.98;;
10132;SDS011;5106;50.926;7.080;2023-04-01T11:39:47;1.67;;;1.00;;
10132;SDS011;5106;50.926;7.080;2023-04-01T11:53:26;1.30;;;1.00;;
10132;SDS011;5106;50.926;7.080;2023-04-01T12:09:52;1.20;;;1.10;;
10132;SDS011;5106;50.926;7.080;2023-04-01T12:26:20;0.95;;;0.88;;
10132;SDS011;5106;50.926;7.080;2023-04-01T12:34:25;1.35;;;0.90;;
10132;SDS011;5106;50.926;7.080;2023-04-01T12:37:27;0.95;;;0.85;;
10132;SDS011;5106;50.926;7.080;2023-04-01T12:43:02;0.80;;;0.80;;
10132;SDS011;5106;50.926;7.080;2023-04-01T12:48:45;1.08;;;0.85;;
10132;SDS011;5106;50.926;7.080;2023-04-01T13:08:05;1.27;;;1.00;;
10132;SDS011;5106;50.926;7.080;2023-04-01T13:16:16;1.08;;;0.82;;
10132;SDS011;5106;50.926;7.080;2023-04-01T13:19:03;0.80;;;0.80;;
10132;SDS011;5106;50.926;7.080;2023-04-01T13:21:41;0.90;;;0.90;;
10132;SDS011;5106;50.926;7.080;2023-04-01T13:27:17;1.45;;;1.10;;
10132;SDS011;5106;50.926;7.080;2023-04-01T13:43:16;1.55;;;0.90;;
10132;SDS011;5106;50.926;7.080;2023-04-01T13:54:17;1.30;;;1.20;;
10132;SDS011;5106;50.926;7.080;2023-04-01T14:13:02;1.52;;;1.42;;
10132;SDS011;5106;50.926;7.080;2023-04-01T14:26:30;1.80;;;1.58;;
10132;SDS011;5106;50.926;7.080;2023-04-01T14:32:05;1.95;;;1.75;;
10132;SDS011;5106;50.926;7.080;2023-04-01T14:37:19;3.28;;;1.80;;
10132;SDS011;5106;50.926;7.080;2023-04-01T14:45:17;1.90;;;1.70;;
10132;SDS011;5106;50.926;7.080;2023-04-01T14:48:31;1.52;;;1.40;;
10132;SDS011;5106;50.926;7.080;2023-04-01T14:51:28;1.95;;;1.50;;
10132;SDS011;5106;50.926;7.080;2023-04-01T14:59:07;1.40;;;1.30;;
10132;SDS011;5106;50.926;7.080;2023-04-01T15:01:41;2.15;;;1.70;;
10132;SDS011;5106;50.926;7.080;2023-04-01T15:15:12;2.60;;;1.70;;
10132;SDS011;5106;50.926;7.080;2023-04-01T15:18:06;2.45;;;1.98;;
10132;SDS011;5106;50.926;7.080;2023-04-01T15:21:03;1.92;;;1.50;;
10132;SDS011;5106;50.926;7.080;2023-04-01T15:24:06;1.92;;;1.80;;
10132;SDS011;5106;50.926;7.080;2023-04-01T15:29:16;1.70;;;1.60;;
10132;SDS011;5106;50.926;7.080;2023-04-01T16:01:59;3.45;;;1.80;;
10132;SDS011;5106;50.926;7.080;2023-04-01T16:04:43;2.28;;;2.08;;
10132;SDS011;5106;50.926;7.080;2023-04-01T16:21:06;2.10;;;1.92;;
10132;SDS011;5106;50.926;7.080;2023-04-01T16:23:57;3.70;;;2.30;;
10132;SDS011;5106;50.926;7.080;2023-04-01T16:26:39;2.10;;;1.90;;
10132;SDS011;5106;50.926;7.080;2023-04-01T16:31:46;2.60;;;2.38;;
10132;SDS011;5106;50.926;7.080;2023-04-01T16:34:27;2.30;;;2.10;;
10132;SDS011;5106;50.926;7.080;2023-04-01T16:40:01;2.40;;;2.10;;
10132;SDS011;5106;50.926;7.080;2023-04-01T16:47:34;2.53;;;2.03;;
10132;SDS011;5106;50.926;7.080;2023-04-01T16:52:53;2.75;;;2.25;;
10132;SDS011;5106;50.926;7.080;2023-04-01T16:55:35;2.10;;;1.90;;
10132;SDS011;5106;50.926;7.080;2023-04-01T16:58:14;2.30;;;2.10;;
10132;SDS011;5106;50.926;7.080;2023-04-01T17:00:48;1.92;;;1.80;;
10132;SDS011;5106;50.926;7.080;2023-04-01T17:03:17;3.72;;;2.55;;
10132;SDS011;5106;50.926;7.080;2023-04-01T17:05:57;3.28;;;2.00;;
10132;SDS011;5106;50.926;7.080;2023-04-01T17:08:32;2.85;;;2.20;;
10132;SDS011;5106;50.926;7.080;2023-04-01T17:11:14;3.05;;;2.20;;
10132;SDS011;5106;50.926;7.080;2023-04-01T17:13:58;3.55;;;2.30;;
10132;SDS011;5106;50.926;7.080;2023-04-01T17:22:23;2.58;;;2.38;;
10132;SDS011;5106;50.926;7.080;2023-04-01T17:30:23;3.22;;;2.60;;
10132;SDS011;5106;50.926;7.080;2023-04-01T17:41:57;2.40;;;2.20;;
10132;SDS011;5106;50.926;7.080;2023-04-01T17:47:38;4.72;;;2.30;;
10132;SDS011;5106;50.926;7.080;2023-04-01T18:03:47;2.53;;;2.33;;
10132;SDS011;5106;50.926;7.080;2023-04-01T18:06:41;5.00;;;2.45;;
10132;SDS011;5106;50.926;7.080;2023-04-01T18:12:34;2.70;;;2.25;;
10132;SDS011;5106;50.926;7.080;2023-04-01T18:23:29;4.18;;;2.50;;
10132;SDS011;5106;50.926;7.080;2023-04-01T18:26:21;2.75;;;2.55;;
10132;SDS011;5106;50.926;7.080;2023-04-01T18:29:04;4.70;;;2.95;;
10132;SDS011;5106;50.926;7.080;2023-04-01T18:31:51;2.83;;;2.63;;
10132;SDS011;5106;50.926;7.080;2023-04-01T18:37:18;3.47;;;2.97;;
10132;SDS011;5106;50.926;7.080;2023-04-01T18:39:52;3.78;;;3.10;;
10132;SDS011;5106;50.926;7.080;2023-04-01T18:45:37;4.05;;;3.40;;
10132;SDS011;5106;50.926;7.080;2023-04-01T18:48:14;3.97;;;3.10;;
10132;SDS011;5106;50.926;7.080;2023-04-01T18:50:56;3.38;;;2.95;;
10132;SDS011;5106;50.926;7.080;2023-04-01T18:53:28;3.92;;;3.53;;
10132;SDS011;5106;50.926;7.080;2023-04-01T18:56:00;3.80;;;3.40;;
10132;SDS011;5106;50.926;7.080;2023-04-01T19:01:19;3.93;;;3.53;;
10132;SDS011;5106;50.926;7.080;2023-04-01T19:06:21;5.32;;;3.45;;
10132;SDS011;5106;50.926;7.080;2023-04-01T19:08:53;5.05;;;3.63;;
10132;SDS011;5106;50.926;7.080;2023-04-01T19:11:24;4.00;;;3.58;;
10132;SDS011;5106;50.926;7.080;2023-04-01T19:17:00;3.78;;;3.35;;
10132;SDS011;5106;50.926;7.080;2023-04-01T19:19:51;3.60;;;3.28;;
10132;SDS011;5106;50.926;7.080;2023-04-01T19:25:00;5.13;;;3.30;;
10132;SDS011;5106;50.926;7.080;2023-04-01T19:35:32;3.93;;;2.80;;
10132;SDS011;5106;50.926;7.080;2023-04-01T19:38:17;3.40;;;3.10;;
10132;SDS011;5106;50.926;7.080;2023-04-01T19:40:53;2.95;;;2.75;;
10132;SDS011;5106;50.926;7.080;2023-04-01T19:49:38;5.75;;;3.35;;
10132;SDS011;5106;50.926;7.080;2023-04-01T19:57:21;3.80;;;3.40;;
10132;SDS011;5106;50.926;7.080;2023-04-01T20:03:51;4.05;;;3.58;;
10132;SDS011;5106;50.926;7.080;2023-04-01T20:06:09;4.72;;;3.80;;
10132;SDS011;5106;50.926;7.080;2023-04-01T20:11:58;4.38;;;3.97;;
10132;SDS011;5106;50.926;7.080;2023-04-01T20:14:49;4.53;;;3.77;;
10132;SDS011;5106;50.926;7.080;2023-04-01T20:17:38;4.20;;;3.80;;
10132;SDS011;5106;50.926;7.080;2023-04-01T20:23:24;4.28;;;3.65;;
10132;SDS011;5106;50.926;7.080;2023-04-01T20:25:33;4.35;;;3.83;;
10132;SDS011;5106;50.926;7.080;2023-04-01T20:33:37;4.33;;;3.93;;
10132;SDS011;5106;50.926;7.080;2023-04-01T20:51:06;4.97;;;4.00;;
10132;SDS011;5106;50.926;7.080;2023-04-01T21:16:13;6.25;;;4.20;;
10132;SDS011;5106;50.926;7.080;2023-04-01T21:27:16;4.40;;;4.00;;
10132;SDS011;5106;50.926;7.080;2023-04-01T21:32:36;5.18;;;4.57;;
10132;SDS011;5106;50.926;7.080;2023-04-01T21:37:56;4.28;;;3.83;;
10132;SDS011;5106;50.926;7.080;2023-04-01T21:40:30;5.13;;;4.65;;
10132;SDS011;5106;50.926;7.080;2023-04-01T22:05:27;3.85;;;3.45;;
10132;SDS011;5106;50.926;7.080;2023-04-01T22:08:23;4.25;;;3.40;;
10132;SDS011;5106;50.926;7.080;2023-04-01T22:17:00;4.05;;;3.65;;
10132;SDS011;5106;50.926;7.080;2023-04-01T22:19:28;4.38;;;3.90;;
10132;SDS011;5106;50.926;7.080;2023-04-01T22:22:15;4.82;;;4.43;;
10132;SDS011;5106;50.926;7.080;2023-04-01T22:33:15;5.10;;;4.45;;
10132;SDS011;5106;50.926;7.080;2023-04-01T22:44:17;5.00;;;4.45;;
10132;SDS011;5106;50.926;7.080;2023-04-01T22:47:02;5.85;;;4.68;;
10132;SDS011;5106;50.926;7.080;2023-04-01T22:49:45;6.53;;;4.90;;
10132;SDS011;5106;50.926;7.080;2023-04-01T22:52:35;5.80;;;4.68;;
10132;SDS011;5106;50.926;7.080;2023-04-01T22:55:21;5.60;;;5.00;;
10132;SDS011;5106;50.926;7.080;2023-04-01T22:57:49;6.43;;;5.03;;
10132;SDS011;5106;50.926;7.080;2023-04-01T23:00:26;5.93;;;4.75;;
10132;SDS011;5106;50.926;7.080;2023-04-01T23:05:47;5.90;;;5.30;;
10132;SDS011;5106;50.926;7.080;2023-04-01T23:11:08;5.90;;;5.03;;
10132;SDS011;5106;50.926;7.080;2023-04-01T23:13:51;5.05;;;4.55;;
10132;SDS011;5106;50.926;7.080;2023-04-01T23:16:29;5.43;;;4.93;;
10132;SDS011;5106;50.926;7.080;2023-04-01T23:22:09;5.13;;;4.57;;
10132;SDS011;5106;50.926;7.080;2023-04-01T23:24:52;5.10;;;4.60;;
10132;SDS011;5106;50.926;7.080;2023-04-01T23:27:35;5.30;;;4.80;;
10132;SDS011;5106;50.926;7.080;2023-04-01T23:38:19;4.85;;;4.28;;
10132;SDS011;5106;50.926;7.080;2023-04-01T23:40:49;5.03;;;4.53;;
10132;SDS011;5106;50.926;7.080;2023-04-01T23:43:26;5.28;;;4.72;;
10132;SDS011;5106;50.926;7.080;2023-04-01T23:45:57;5.32;;;4.57;;
10132;SDS011;5106;50.926;7.080;2023-04-01T23:48:40;5.57;;;4.40;;
10132;SDS011;5106;50.926;7.080;2023-04-01T23:51:12;5.57;;;4.50;;
10132;SDS011;5106;50.926;7.080;2023-04-01T23:54:01;4.40;;;3.97;;
10132;SDS011;5106;50.926;7.080;2023-04-01T23:56:48;5.30;;;4.80;;
10132;SDS011;5106;50.926;7.080;2023-04-01T23:59:37;6.43;;;4.97;;
